메인 페이지
METAR-TAF:

METAR-TAF

공항 :

예테보리, 스웨덴

위도: 57-47N, 경도: 011-53E, 고도: 20m

현재 날씨관측

예보는 34분 전, 19:20시(UTC)에 발표되었습니다.
서남서8kt
온도 15°C
습도 77%
기압 1013 hPa
시정 10km 이상
고도 1500ft 상공 구름 조금

METAR: ESGP 191920Z 24008KT 9999 FEW015 15/11 Q1013

시각: 21:54 (19:54 UTC)

예보

예보는 2 시간 24분 전, 17:30시(UTC)에 발표되었습니다.
예보 대상 시간: 19일 18시부터 19일 21시까지 (UTC)
10kt
시정 10km 이상
1500m 미만 상공 구름 및 적란운 없음
전환 중
19일 19시부터 19일 21시까지 (UTC)
남남서6kt

TAF: ESGP 191730Z 1918/1921 26010KT CAVOK BECMG 1919/1921 20006KT

4,000개 이상의 공항 관측 자료 및 예보 (METAR 및 TAF 보고).

지도상에서 검색 가능한 기상관측소가 노란 점과 빨간 점으로 표시되어 있습니다.

기상관측소 명을 보려면 표시 위로 마우스를 이동하세요.

날씨 관측과 예보를 보려면 클릭하세요.

지도 변경 : 확대하려면 엑스 표시가 있는 녹색 버튼, 축소하려면 빼기 표시가 있는 녹색 버튼, 다음 페이지의 지도를 보려면 녹색 화살표를 클릭하세요.


METAR-TAF: